Terminal Aerodrome Forecast
Issued by NWS

Home | Current Version | Previous Version | Text Only | Print | Product List | Glossary Off
Versions: 1 2 3 4 5 6 7 8 9 10 11 12 13 14 15 16 17

000
FTUS45 KGGW 271720
TAFSDY
TAF
KSDY 271720Z 2718/2818 29018KT P6SM SCT080
     FM272100 31017KT P6SM BKN080
     FM280200 32008KT P6SM FEW100
     FM281400 29011KT P6SM FEW090
     FM281700 32018G26KT P6SM FEW060=

USA.gov is the U.S. government's official web portal to all federal, state and local government web resources and services.